createdAt,value
2017-07-16T00:01:58.028Z,1011.21
2017-07-16T00:04:22.074Z,1011.25
2017-07-16T00:06:46.082Z,1011.18
2017-07-16T00:09:10.109Z,1011.18
2017-07-16T00:11:25.695Z,1011.19
2017-07-16T00:13:49.692Z,1011.17
2017-07-16T00:16:05.229Z,1011.18
2017-07-16T00:18:20.783Z,1011.17
2017-07-16T00:20:44.745Z,1011.2
2017-07-16T00:23:08.748Z,1011.19
2017-07-16T00:25:32.759Z,1011.15
2017-07-16T00:27:56.777Z,1011.17
2017-07-16T00:30:20.782Z,1011.21
2017-07-16T00:32:44.833Z,1011.25
2017-07-16T00:35:08.922Z,1011.2
2017-07-16T00:37:24.559Z,1011.23
2017-07-16T00:39:48.505Z,1011.22
2017-07-16T00:42:04.145Z,1011.17
2017-07-16T00:44:28.248Z,1011.13
2017-07-16T00:46:52.251Z,1011.13
2017-07-16T00:49:16.302Z,1011.19
2017-07-16T00:51:40.389Z,1011.14
2017-07-16T00:54:04.481Z,1011.23
2017-07-16T00:56:20.070Z,1011.2
2017-07-16T00:58:22.731Z,1011.22
2017-07-16T01:00:46.775Z,1011.27
2017-07-16T01:03:10.795Z,1011.26
2017-07-16T01:05:34.830Z,1011.24
2017-07-16T01:07:50.411Z,1011.17
2017-07-16T01:10:14.427Z,1011.17
2017-07-16T01:12:30.027Z,1011.24
2017-07-16T01:14:54.051Z,1011.22
2017-07-16T01:17:01.256Z,1011.19
2017-07-16T01:19:25.306Z,1011.18
2017-07-16T01:21:32.522Z,1011.19
2017-07-16T01:23:56.526Z,1011.16
2017-07-16T01:26:20.549Z,1011.16
2017-07-16T01:28:44.602Z,1011.17
2017-07-16T01:31:08.685Z,1011.14
2017-07-16T01:33:32.763Z,1011.16
2017-07-16T01:35:56.837Z,1011.18
2017-07-16T01:38:20.869Z,1011.13
2017-07-16T01:40:45.001Z,1011.16
2017-07-16T01:43:09.023Z,1011.16
2017-07-16T01:45:33.042Z,1011.09
2017-07-16T01:47:57.154Z,1011.1
2017-07-16T01:50:21.210Z,1011.1
2017-07-16T01:52:45.212Z,1011.1
2017-07-16T01:55:09.230Z,1011.07
2017-07-16T01:57:33.234Z,1011.07
2017-07-16T01:59:57.234Z,1011.07
2017-07-16T02:02:21.223Z,1011.11
2017-07-16T02:04:45.216Z,1011.09
2017-07-16T02:07:09.291Z,1011.09
2017-07-16T02:09:24.929Z,1011.1
2017-07-16T02:11:26.292Z,1011.13
2017-07-16T02:13:50.311Z,1011.15
2017-07-16T02:16:14.288Z,1011.1
2017-07-16T02:18:29.781Z,1011.16
2017-07-16T02:20:53.837Z,1011.12
2017-07-16T02:23:17.929Z,1011.17
2017-07-16T02:25:41.821Z,1011.16
2017-07-16T02:28:05.777Z,1011.16
2017-07-16T02:30:07.215Z,1011.21
2017-07-16T02:32:22.748Z,1011.19
2017-07-16T02:34:46.688Z,1011.13
2017-07-16T02:37:02.206Z,1011.14
2017-07-16T02:39:26.245Z,1011.14
2017-07-16T02:41:36.115Z,1011.16
2017-07-16T02:44:00.102Z,1011.11
2017-07-16T02:46:24.028Z,1011.08
2017-07-16T02:48:25.393Z,1011.11
2017-07-16T02:50:49.310Z,1011.1
2017-07-16T02:52:50.649Z,1011.07
2017-07-16T02:55:14.624Z,1011.11
2017-07-16T02:57:30.116Z,1011.1
2017-07-16T02:59:54.061Z,1011.18
2017-07-16T03:02:09.592Z,1011.17
2017-07-16T03:04:33.523Z,1011.18
2017-07-16T03:06:49.024Z,1011.16
2017-07-16T03:09:12.979Z,1011.18
2017-07-16T03:11:36.958Z,1011.16
2017-07-16T03:14:00.938Z,1011.15
2017-07-16T03:16:24.916Z,1011.15
2017-07-16T03:18:48.900Z,1011.16
2017-07-16T03:21:04.449Z,1011.21
2017-07-16T03:23:28.380Z,1011.27
2017-07-16T03:25:35.527Z,1011.27
2017-07-16T03:27:59.522Z,1011.26
2017-07-16T03:30:09.427Z,1011.25
2017-07-16T03:32:33.388Z,1011.33
2017-07-16T03:34:48.862Z,1011.31
2017-07-16T03:37:12.826Z,1011.35
2017-07-16T03:39:36.729Z,1011.27
2017-07-16T03:42:00.698Z,1011.29
2017-07-16T03:44:24.634Z,1011.34
2017-07-16T03:46:48.543Z,1011.34
2017-07-16T03:49:12.510Z,1011.35
2017-07-16T03:51:36.486Z,1011.31
2017-07-16T03:54:00.455Z,1011.34
2017-07-16T03:56:24.445Z,1011.34
2017-07-16T03:58:48.525Z,1011.36
2017-07-16T04:01:12.458Z,1011.31
2017-07-16T04:03:36.490Z,1011.32
2017-07-16T04:06:00.586Z,1011.3
2017-07-16T04:08:24.664Z,1011.25
2017-07-16T04:10:17.582Z,1011.2
2017-07-16T04:12:41.563Z,1011.15
2017-07-16T04:15:05.515Z,1011.15
2017-07-16T04:17:21.146Z,1011.12
2017-07-16T04:19:45.222Z,1011.11
2017-07-16T04:22:00.754Z,1011.15
2017-07-16T04:24:24.709Z,1011.19
2017-07-16T04:26:48.667Z,1011.2
2017-07-16T04:29:04.195Z,1011.2
2017-07-16T04:31:28.228Z,1011.26
2017-07-16T04:33:35.334Z,1011.32
2017-07-16T04:35:59.386Z,1011.36
2017-07-16T04:38:23.508Z,1011.41
2017-07-16T04:40:47.565Z,1011.38
2017-07-16T04:43:11.545Z,1011.4
2017-07-16T04:45:35.526Z,1011.42
2017-07-16T04:47:59.597Z,1011.47
2017-07-16T04:50:06.684Z,1011.51
2017-07-16T04:52:30.774Z,1011.54
2017-07-16T04:54:37.914Z,1011.46
2017-07-16T04:57:01.928Z,1011.48
2017-07-16T04:59:26.016Z,1011.49
2017-07-16T05:01:50.109Z,1011.53
2017-07-16T05:04:14.188Z,1011.52
2017-07-16T05:06:38.265Z,1011.56
2017-07-16T05:08:53.852Z,1011.57
2017-07-16T05:11:17.874Z,1011.67
2017-07-16T05:13:42.010Z,1011.68
2017-07-16T05:15:43.383Z,1011.74
2017-07-16T05:18:07.413Z,1011.74
2017-07-16T05:20:23.014Z,1011.68
2017-07-16T05:22:47.036Z,1011.71
2017-07-16T05:25:11.088Z,1011.69
2017-07-16T05:27:35.175Z,1011.74
2017-07-16T05:29:59.259Z,1011.71
2017-07-16T05:32:23.353Z,1011.76
2017-07-16T05:34:47.432Z,1011.84
2017-07-16T05:37:11.580Z,1011.73
2017-07-16T05:39:35.947Z,1011.78
2017-07-16T05:41:51.879Z,1011.74
2017-07-16T05:44:16.226Z,1011.76
2017-07-16T05:46:32.157Z,1011.82
2017-07-16T05:48:56.510Z,1011.78
2017-07-16T05:51:20.902Z,1011.76
2017-07-16T05:53:28.365Z,1011.71
2017-07-16T05:55:44.181Z,1011.75
2017-07-16T05:58:08.552Z,1011.82
2017-07-16T06:00:32.806Z,1011.83
2017-07-16T06:02:57.123Z,1011.86
2017-07-16T06:04:58.550Z,1011.89
2017-07-16T06:07:22.806Z,1011.83
2017-07-16T06:09:47.044Z,1011.84
2017-07-16T06:12:11.812Z,1011.9
2017-07-16T06:14:36.032Z,1011.89
2017-07-16T06:17:00.249Z,1011.87
2017-07-16T06:19:24.487Z,1011.91
2017-07-16T06:21:48.715Z,1011.96
2017-07-16T06:24:04.485Z,1011.97
2017-07-16T06:26:28.747Z,1012.03
2017-07-16T06:28:53.034Z,1012
2017-07-16T06:31:17.325Z,1012
2017-07-16T06:33:41.527Z,1012.01
2017-07-16T06:35:48.834Z,1012.08
2017-07-16T06:38:13.001Z,1012.16
2017-07-16T06:40:37.271Z,1012.19
2017-07-16T06:43:01.555Z,1012.17
2017-07-16T06:45:25.766Z,1012.23
2017-07-16T06:47:35.740Z,1012.22
2017-07-16T06:50:00.022Z,1012.23
2017-07-16T06:52:24.329Z,1012.23
2017-07-16T06:54:48.676Z,1012.28
2017-07-16T06:57:13.000Z,1012.26
2017-07-16T06:59:28.998Z,1012.25
2017-07-16T07:01:53.373Z,1012.28
2017-07-16T07:04:09.383Z,1012.29
2017-07-16T07:06:33.834Z,1012.34
2017-07-16T07:08:58.210Z,1012.35
2017-07-16T07:11:22.590Z,1012.36
2017-07-16T07:13:47.004Z,1012.38
2017-07-16T07:16:11.402Z,1012.37
2017-07-16T07:18:35.870Z,1012.41
2017-07-16T07:21:00.256Z,1012.38
2017-07-16T07:23:16.160Z,1012.35
2017-07-16T07:25:32.257Z,1012.36
2017-07-16T07:27:56.741Z,1012.39
2017-07-16T07:30:21.428Z,1012.37
2017-07-16T07:32:45.825Z,1012.33
2017-07-16T07:35:10.367Z,1012.36
2017-07-16T07:37:34.704Z,1012.4
2017-07-16T07:39:50.680Z,1012.39
2017-07-16T07:42:15.085Z,1012.37
2017-07-16T07:44:39.544Z,1012.35
2017-07-16T07:47:03.964Z,1012.34
2017-07-16T07:49:28.408Z,1012.34
2017-07-16T07:51:52.805Z,1012.37
2017-07-16T07:54:08.782Z,1012.35
2017-07-16T07:56:33.153Z,1012.38
2017-07-16T07:58:57.625Z,1012.37
2017-07-16T08:01:22.095Z,1012.38
2017-07-16T08:03:46.495Z,1012.36
2017-07-16T08:06:10.984Z,1012.34
2017-07-16T08:08:35.415Z,1012.3
2017-07-16T08:10:51.413Z,1012.31
2017-07-16T08:13:15.887Z,1012.32
2017-07-16T08:15:40.382Z,1012.32
2017-07-16T08:17:50.469Z,1012.42
2017-07-16T08:20:00.533Z,1012.39
2017-07-16T08:22:25.122Z,1012.34
2017-07-16T08:24:49.698Z,1012.36
2017-07-16T08:27:14.222Z,1012.4
2017-07-16T08:29:38.873Z,1012.45
2017-07-16T08:32:03.413Z,1012.41
2017-07-16T08:34:19.477Z,1012.37
2017-07-16T08:36:44.048Z,1012.44
2017-07-16T08:39:08.636Z,1012.41
2017-07-16T08:41:33.254Z,1012.43
2017-07-16T08:43:57.804Z,1012.48
2017-07-16T08:46:22.429Z,1012.5
2017-07-16T08:48:47.125Z,1012.53
2017-07-16T08:51:11.919Z,1012.47
2017-07-16T08:53:36.754Z,1012.46
2017-07-16T08:56:01.573Z,1012.46
2017-07-16T08:58:26.439Z,1012.48
2017-07-16T09:00:51.353Z,1012.53
2017-07-16T09:03:16.298Z,1012.45
2017-07-16T09:05:41.446Z,1012.44
2017-07-16T09:08:06.428Z,1012.46
2017-07-16T09:10:31.504Z,1012.46
2017-07-16T09:12:33.165Z,1012.44
2017-07-16T09:14:58.168Z,1012.42
2017-07-16T09:17:23.215Z,1012.35
2017-07-16T09:19:48.247Z,1012.35
2017-07-16T09:22:13.230Z,1012.38
2017-07-16T09:24:38.265Z,1012.33
2017-07-16T09:27:03.218Z,1012.35
2017-07-16T09:29:19.653Z,1012.39
2017-07-16T09:31:44.550Z,1012.38
2017-07-16T09:34:00.943Z,1012.09
2017-07-16T09:36:25.769Z,1012.33
2017-07-16T09:38:51.698Z,1012.31
2017-07-16T09:41:08.279Z,1012.29
2017-07-16T09:43:33.166Z,1012.31
2017-07-16T09:45:57.968Z,1012.38
2017-07-16T09:48:14.410Z,1012.43
2017-07-16T09:50:39.338Z,1012.47
2017-07-16T09:53:04.279Z,1012.4
2017-07-16T09:55:29.220Z,1012.39
2017-07-16T09:57:54.360Z,1012.5
2017-07-16T10:00:19.389Z,1012.43
2017-07-16T10:02:44.526Z,1012.43
2017-07-16T10:05:09.614Z,1012.36
2017-07-16T10:07:34.811Z,1012.32
2017-07-16T10:10:00.033Z,1012.29
2017-07-16T10:12:25.172Z,1012.36
2017-07-16T10:14:50.382Z,1012.35
2017-07-16T10:17:15.415Z,1012.36
2017-07-16T10:19:40.525Z,1012.35
2017-07-16T10:22:05.670Z,1012.36
2017-07-16T10:24:30.841Z,1012.29
2017-07-16T10:26:56.936Z,1012.29
2017-07-16T10:29:22.086Z,1012.23
2017-07-16T10:31:47.454Z,1012.2
2017-07-16T10:34:19.629Z,1012.18
2017-07-16T10:36:44.929Z,1012.16
2017-07-16T10:39:11.129Z,1012.21
2017-07-16T10:41:36.340Z,1012.19
2017-07-16T10:44:01.525Z,1012.13
2017-07-16T10:46:26.757Z,1012.04
2017-07-16T10:48:51.014Z,1011.65
2017-07-16T10:51:16.255Z,1012.03
2017-07-16T10:53:41.452Z,1012
2017-07-16T10:56:06.663Z,1011.94
2017-07-16T10:58:31.960Z,1011.95
2017-07-16T11:00:57.140Z,1011.91
2017-07-16T11:03:22.294Z,1011.89
2017-07-16T11:05:47.487Z,1011.88
2017-07-16T11:08:12.623Z,1011.84
2017-07-16T11:10:37.784Z,1011.8
2017-07-16T11:13:03.041Z,1011.81
2017-07-16T11:15:29.254Z,1011.77
2017-07-16T11:17:54.367Z,1011.71
2017-07-16T11:20:20.626Z,1011.7
2017-07-16T11:22:45.765Z,1011.69
2017-07-16T11:25:10.923Z,1011.69
2017-07-16T11:27:37.058Z,1011.61
2017-07-16T11:30:03.150Z,1011.59
2017-07-16T11:32:28.267Z,1011.56
2017-07-16T11:34:53.379Z,1011.48
2017-07-16T11:37:10.498Z,1011.47
2017-07-16T11:39:36.714Z,1011.47
2017-07-16T11:42:01.816Z,1011.51
2017-07-16T11:44:26.986Z,1011.45
2017-07-16T11:46:52.235Z,1011.42
2017-07-16T11:49:17.217Z,1011.37
2017-07-16T11:51:42.266Z,1011.37
2017-07-16T11:54:07.413Z,1011.38
2017-07-16T11:56:00.539Z,1011.35
2017-07-16T11:58:25.582Z,1011.35
2017-07-16T12:00:50.594Z,1011.39
2017-07-16T12:03:15.594Z,1011.33
2017-07-16T12:05:40.619Z,1011.31
2017-07-16T12:08:05.612Z,1011.31
2017-07-16T12:10:22.176Z,1011.34
2017-07-16T12:12:47.259Z,1011.27
2017-07-16T12:15:03.834Z,1011.26
2017-07-16T12:17:28.917Z,1011.25
2017-07-16T12:19:45.508Z,1011.31
2017-07-16T12:22:02.887Z,1011.29
2017-07-16T12:24:19.446Z,1011.21
2017-07-16T12:26:44.685Z,1011.24
2017-07-16T12:29:09.901Z,1011.23
2017-07-16T12:31:20.401Z,1011.24
2017-07-16T12:33:45.521Z,1011.22
2017-07-16T12:35:47.436Z,1011.14
2017-07-16T12:38:12.625Z,1011.12
2017-07-16T12:40:37.833Z,1011.17
2017-07-16T12:43:02.971Z,1011.07
2017-07-16T12:45:28.119Z,1011.15
2017-07-16T12:47:36.218Z,1011.15
2017-07-16T12:50:01.359Z,1011.17
2017-07-16T12:52:26.493Z,1011.18
2017-07-16T12:54:43.177Z,1011.15
2017-07-16T12:57:08.289Z,1011.12
2017-07-16T12:59:34.561Z,1011.08
2017-07-16T13:01:59.782Z,1011.04
2017-07-16T13:04:24.864Z,1011
2017-07-16T13:06:49.974Z,1011.02
2017-07-16T13:08:34.633Z,1010.95
2017-07-16T13:10:59.748Z,1010.95
2017-07-16T13:13:24.851Z,1010.94
2017-07-16T13:15:49.949Z,1010.95
2017-07-16T13:18:15.058Z,1010.95
2017-07-16T13:20:31.610Z,1010.87
2017-07-16T13:22:56.658Z,1010.88
2017-07-16T13:24:58.316Z,1010.81
2017-07-16T13:27:23.382Z,1010.79
2017-07-16T13:29:48.439Z,1010.76
2017-07-16T13:32:13.487Z,1010.7
2017-07-16T13:34:38.533Z,1010.66
2017-07-16T13:37:03.570Z,1010.6
2017-07-16T13:39:28.707Z,1010.59
2017-07-16T13:41:53.811Z,1010.56
2017-07-16T13:44:10.297Z,1010.55
2017-07-16T13:46:12.145Z,1010.55
2017-07-16T13:48:14.654Z,1010.51
2017-07-16T13:50:31.178Z,1010.48
2017-07-16T13:52:47.673Z,1010.44
2017-07-16T13:54:58.194Z,1010.37
2017-07-16T13:57:23.192Z,1010.36
2017-07-16T13:59:48.171Z,1010.37
2017-07-16T14:02:13.174Z,1010.41
2017-07-16T14:04:38.177Z,1010.38
2017-07-16T14:07:03.158Z,1010.41
2017-07-16T14:09:28.158Z,1010.4
2017-07-16T14:11:53.138Z,1010.33
2017-07-16T14:14:18.163Z,1010.37
2017-07-16T14:16:43.171Z,1010.36
2017-07-16T14:19:08.145Z,1010.32
2017-07-16T14:21:33.143Z,1010.33
2017-07-16T14:23:49.669Z,1010.34
2017-07-16T14:26:06.170Z,1010.31
2017-07-16T14:28:31.156Z,1010.33
2017-07-16T14:30:56.159Z,1010.38
2017-07-16T14:33:21.226Z,1010.37
2017-07-16T14:35:46.275Z,1010.34
2017-07-16T14:38:11.329Z,1010.36
2017-07-16T14:40:36.513Z,1010.36
2017-07-16T14:43:01.586Z,1010.38
2017-07-16T14:45:26.741Z,1010.36
2017-07-16T14:47:51.810Z,1010.4
2017-07-16T14:50:08.352Z,1010.34
2017-07-16T14:52:19.213Z,1010.3
2017-07-16T14:54:44.482Z,1010.34
2017-07-16T14:57:09.521Z,1010.33
2017-07-16T14:59:20.053Z,1010.29
2017-07-16T15:01:36.621Z,1010.27
2017-07-16T15:03:53.155Z,1010.25
2017-07-16T15:06:18.113Z,1010.2
2017-07-16T15:08:43.132Z,1010.24
2017-07-16T15:11:08.186Z,1010.22
2017-07-16T15:13:33.208Z,1010.23
2017-07-16T15:15:58.163Z,1010.25
2017-07-16T15:18:23.098Z,1010.26
2017-07-16T15:20:48.037Z,1010.21
2017-07-16T15:23:12.964Z,1010.25
2017-07-16T15:25:37.874Z,1010.2
2017-07-16T15:27:54.231Z,1010.17
2017-07-16T15:30:19.132Z,1010.13
2017-07-16T15:32:12.888Z,1010.12
2017-07-16T15:34:37.793Z,1010.03
2017-07-16T15:37:02.662Z,1010.07
2017-07-16T15:39:27.510Z,1010.1
2017-07-16T15:41:52.310Z,1010.03
2017-07-16T15:44:17.180Z,1010.04
2017-07-16T15:46:42.675Z,1009.96
2017-07-16T15:49:07.083Z,1009.94
2017-07-16T15:51:31.956Z,1009.92
2017-07-16T15:53:56.854Z,1009.96
2017-07-16T15:56:13.276Z,1009.95
2017-07-16T15:58:38.172Z,1009.89
2017-07-16T16:01:03.048Z,1009.86
2017-07-16T16:03:27.876Z,1009.83
2017-07-16T16:05:44.275Z,1009.83
2017-07-16T16:08:09.120Z,1009.82
2017-07-16T16:10:19.441Z,1009.79
2017-07-16T16:12:44.279Z,1009.76
2017-07-16T16:15:09.132Z,1009.78
2017-07-16T16:17:34.087Z,1009.73
2017-07-16T16:19:58.896Z,1009.72
2017-07-16T16:22:23.667Z,1009.73
2017-07-16T16:24:48.468Z,1009.74
2017-07-16T16:27:13.186Z,1009.75
2017-07-16T16:29:38.240Z,1009.71
2017-07-16T16:32:02.994Z,1009.75
2017-07-16T16:34:27.860Z,1009.71
2017-07-16T16:36:44.085Z,1009.46
2017-07-16T16:39:08.844Z,1009.74
2017-07-16T16:41:33.613Z,1009.74
2017-07-16T16:43:58.401Z,1009.71
2017-07-16T16:46:23.148Z,1009.69
2017-07-16T16:48:39.524Z,1009.55
2017-07-16T16:51:04.303Z,1009.66
2017-07-16T16:53:29.069Z,1009.61
2017-07-16T16:55:53.832Z,1009.63
2017-07-16T16:58:18.608Z,1009.64
2017-07-16T17:00:12.227Z,1009.54
2017-07-16T17:02:37.026Z,1009.62
2017-07-16T17:05:01.785Z,1009.6
2017-07-16T17:07:26.578Z,1009.63
2017-07-16T17:09:51.274Z,1009.59
2017-07-16T17:12:16.307Z,1009.58
2017-07-16T17:14:40.964Z,1009.62
2017-07-16T17:17:05.839Z,1009.56
2017-07-16T17:19:30.539Z,1009.6
2017-07-16T17:21:55.297Z,1009.55
2017-07-16T17:24:20.293Z,1009.5
2017-07-16T17:26:44.845Z,1009.52
2017-07-16T17:29:09.787Z,1009.47
2017-07-16T17:31:34.574Z,1009.47
2017-07-16T17:34:00.257Z,1009.44
2017-07-16T17:36:16.859Z,1009.41
2017-07-16T17:38:42.126Z,1009.48
2017-07-16T17:41:06.589Z,1009.52
2017-07-16T17:43:31.554Z,1009.57
2017-07-16T17:45:56.414Z,1009.59
2017-07-16T17:48:12.743Z,1009.44
2017-07-16T17:50:44.668Z,1009.52
2017-07-16T17:53:09.365Z,1009.55
2017-07-16T17:55:34.098Z,1009.53
2017-07-16T17:57:59.044Z,1009.59
2017-07-16T18:00:24.505Z,1009.61
2017-07-16T18:02:49.288Z,1009.59
2017-07-16T18:05:14.320Z,1009.56
2017-07-16T18:07:39.617Z,1009.53
2017-07-16T18:10:04.345Z,1009.5
2017-07-16T18:12:29.029Z,1009.53
2017-07-16T18:14:53.688Z,1009.54
2017-07-16T18:17:03.978Z,1009.57
2017-07-16T18:19:28.712Z,1009.56
2017-07-16T18:21:53.419Z,1009.57
2017-07-16T18:24:18.133Z,1009.59
2017-07-16T18:26:43.039Z,1009.6
2017-07-16T18:29:07.673Z,1009.58
2017-07-16T18:31:32.301Z,1009.57
2017-07-16T18:33:56.997Z,1009.6
2017-07-16T18:36:21.683Z,1009.63
2017-07-16T18:38:46.324Z,1009.64
2017-07-16T18:41:11.131Z,1009.63
2017-07-16T18:43:35.883Z,1009.58
2017-07-16T18:45:52.051Z,1009.64
2017-07-16T18:48:16.716Z,1009.58
2017-07-16T18:50:41.358Z,1009.62
2017-07-16T18:53:06.180Z,1009.59
2017-07-16T18:55:30.694Z,1009.58
2017-07-16T18:57:55.428Z,1009.54
2017-07-16T19:00:20.115Z,1009.54
2017-07-16T19:02:44.872Z,1009.52
2017-07-16T19:05:09.483Z,1009.51
2017-07-16T19:07:27.701Z,1009.37
2017-07-16T19:09:52.325Z,1009.5
2017-07-16T19:12:16.929Z,1009.52
2017-07-16T19:14:41.520Z,1009.52
2017-07-16T19:17:06.359Z,1009.51
2017-07-16T19:19:30.885Z,1009.51
2017-07-16T19:21:55.459Z,1009.5
2017-07-16T19:24:20.289Z,1009.53
2017-07-16T19:26:45.477Z,1009.51
2017-07-16T19:29:10.245Z,1009.54
2017-07-16T19:31:34.711Z,1009.54
2017-07-16T19:33:50.910Z,1009.55
2017-07-16T19:36:15.934Z,1009.6
2017-07-16T19:38:40.666Z,1009.55
2017-07-16T19:41:05.249Z,1009.61
2017-07-16T19:43:29.997Z,1009.6
2017-07-16T19:45:54.821Z,1009.59
2017-07-16T19:48:19.784Z,1009.59
2017-07-16T19:50:44.571Z,1009.58
2017-07-16T19:54:45.939Z,1009.6
2017-07-16T19:57:10.482Z,1009.57
2017-07-16T19:59:35.196Z,1009.58
2017-07-16T20:01:59.908Z,1009.59
2017-07-16T20:04:24.227Z,1009.62
2017-07-16T20:06:48.984Z,1009.61
2017-07-16T20:09:13.355Z,1009.58
2017-07-16T20:11:37.954Z,1009.6
2017-07-16T20:14:02.267Z,1009.61
2017-07-16T20:16:26.933Z,1009.61
2017-07-16T20:18:51.337Z,1009.59
2017-07-16T20:21:15.953Z,1009.62
2017-07-16T20:23:41.399Z,1009.6
2017-07-16T20:26:05.039Z,1009.63
2017-07-16T20:28:29.543Z,1009.6
2017-07-16T20:30:53.894Z,1009.61
2017-07-16T20:33:19.312Z,1009.6
2017-07-16T20:35:44.285Z,1009.58
2017-07-16T20:38:23.032Z,1009.54
2017-07-16T20:41:17.117Z,1009.5
2017-07-16T20:43:44.632Z,1009.55
2017-07-16T20:46:10.384Z,1009.55
2017-07-16T20:48:36.991Z,1009.53
2017-07-16T20:51:02.658Z,1009.57
2017-07-16T20:53:27.115Z,1009.57
2017-07-16T20:55:51.920Z,1009.58
2017-07-16T20:58:16.364Z,1009.56
2017-07-16T21:00:40.822Z,1009.55
2017-07-16T21:03:05.323Z,1009.51
2017-07-16T21:05:29.598Z,1009.45
2017-07-16T21:07:54.205Z,1009.44
2017-07-16T21:10:18.587Z,1009.44
2017-07-16T21:12:42.945Z,1009.43
2017-07-16T21:15:07.302Z,1009.45
2017-07-16T21:17:31.601Z,1009.4
2017-07-16T21:19:55.982Z,1009.42
2017-07-16T21:22:20.352Z,1009.4
2017-07-16T21:24:22.532Z,1009.45
2017-07-16T21:26:46.922Z,1009.47
2017-07-16T21:29:11.279Z,1009.49
2017-07-16T21:31:27.167Z,1009.46
2017-07-16T21:33:51.543Z,1009.47
2017-07-16T21:36:15.883Z,1009.44
2017-07-16T21:38:40.189Z,1009.45
2017-07-16T21:40:42.364Z,1009.45
2017-07-16T21:42:58.312Z,1009.39
2017-07-16T21:44:51.644Z,1009.4
2017-07-16T21:47:15.975Z,1009.39
2017-07-16T21:49:40.318Z,1009.36
2017-07-16T21:52:04.611Z,1009.35
2017-07-16T21:54:28.888Z,1009.34
2017-07-16T21:56:53.112Z,1009.36
2017-07-16T21:59:17.348Z,1009.31
2017-07-16T22:01:41.652Z,1009.34
2017-07-16T22:04:05.926Z,1009.38
2017-07-16T22:06:30.269Z,1009.4
2017-07-16T22:08:46.220Z,1009.37
2017-07-16T22:11:10.554Z,1009.37
2017-07-16T22:13:34.856Z,1009.41
2017-07-16T22:15:59.173Z,1009.39
2017-07-16T22:18:23.480Z,1009.4
2017-07-16T22:20:48.018Z,1009.36
2017-07-16T22:23:12.284Z,1009.31
2017-07-16T22:25:36.546Z,1009.32
2017-07-16T22:28:00.978Z,1009.31
2017-07-16T22:30:25.234Z,1009.32
2017-07-16T22:32:49.434Z,1009.25
2017-07-16T22:35:17.140Z,1009.24
2017-07-16T22:39:18.518Z,1009.27
2017-07-16T22:41:42.799Z,1009.27
2017-07-16T22:44:07.046Z,1009.27
2017-07-16T22:46:31.537Z,1009.29
2017-07-16T22:48:55.822Z,1009.27
2017-07-16T22:51:20.086Z,1009.31
2017-07-16T22:53:44.273Z,1009.31
2017-07-16T22:56:08.569Z,1009.26
2017-07-16T22:58:32.821Z,1009.25
2017-07-16T23:00:57.167Z,1009.25
2017-07-16T23:03:22.495Z,1009.22
2017-07-16T23:05:46.858Z,1009.24
2017-07-16T23:08:02.664Z,1009.22
2017-07-16T23:10:26.929Z,1009.2
2017-07-16T23:12:51.177Z,1009.21
2017-07-16T23:15:07.066Z,1009.21
2017-07-16T23:17:31.316Z,1009.23
2017-07-16T23:19:55.518Z,1009.22
2017-07-16T23:23:55.760Z,1009.22
2017-07-16T23:26:20.017Z,1009.18
2017-07-16T23:28:44.246Z,1009.18
2017-07-16T23:31:00.014Z,1009.2
2017-07-16T23:33:10.884Z,1009.17
2017-07-16T23:35:35.127Z,1009.17
2017-07-16T23:37:50.940Z,1009.13
2017-07-16T23:40:01.125Z,1009.11
2017-07-16T23:42:25.387Z,1009.08
2017-07-16T23:44:49.634Z,1009.03
2017-07-16T23:47:13.849Z,1009
2017-07-16T23:49:38.104Z,1008.99
2017-07-16T23:52:03.427Z,1008.97
2017-07-16T23:54:19.208Z,1008.97
2017-07-16T23:56:43.488Z,1008.96
2017-07-16T23:59:07.775Z,1008.97
